createdAt,value
2023-03-23T15:58:54.522Z,9.40
2023-03-23T16:01:27.155Z,8.10
2023-03-23T16:04:03.000Z,9.00
2023-03-23T16:06:33.573Z,8.80
2023-03-23T16:09:02.028Z,8.90
2023-03-23T16:11:33.891Z,8.40
2023-03-23T16:14:02.360Z,8.10
2023-03-23T16:16:37.623Z,7.70
2023-03-23T16:19:06.655Z,7.60
2023-03-23T16:21:36.426Z,8.30
2023-03-23T16:24:04.424Z,8.60
2023-03-23T16:26:34.496Z,8.30
2023-03-23T16:29:14.540Z,8.40
2023-03-23T16:31:45.075Z,8.30
2023-03-23T16:34:13.138Z,8.40
2023-03-23T16:36:41.007Z,8.60
2023-03-23T16:39:12.031Z,9.10
2023-03-23T16:41:41.403Z,8.90
2023-03-23T16:44:14.626Z,9.00
2023-03-23T16:46:42.995Z,9.00
2023-03-23T16:49:11.125Z,7.70
2023-03-23T16:51:42.998Z,7.80
2023-03-23T16:54:11.076Z,10.30
2023-03-23T16:56:49.591Z,8.10
2023-03-23T16:59:18.023Z,8.00
2023-03-23T17:01:45.936Z,8.30
2023-03-23T17:04:15.810Z,8.00
2023-03-23T17:06:46.774Z,8.00
2023-03-23T17:09:14.805Z,8.10
2023-03-23T17:11:44.323Z,8.20
2023-03-23T17:14:12.981Z,8.30
2023-03-23T17:16:42.639Z,8.50
2023-03-23T17:19:16.759Z,7.80
2023-03-23T17:21:44.769Z,8.00
2023-03-23T17:24:21.030Z,7.90
2023-03-23T17:26:49.475Z,8.20
2023-03-23T17:29:17.714Z,8.30
2023-03-23T17:31:45.951Z,8.20
2023-03-23T17:34:13.882Z,8.00
2023-03-23T17:36:44.525Z,8.10
2023-03-23T17:39:12.669Z,8.20
2023-03-23T17:41:40.669Z,8.00
2023-03-23T17:44:09.903Z,9.40
2023-03-23T17:46:39.037Z,9.20
2023-03-23T17:49:07.070Z,9.40
2023-03-23T17:51:36.571Z,9.50
2023-03-23T17:54:04.425Z,10.10
2023-03-23T17:56:38.736Z,9.90
2023-03-23T17:59:07.929Z,11.10
2023-03-23T18:01:36.065Z,10.50
2023-03-23T18:04:06.293Z,10.20
2023-03-23T18:06:34.572Z,9.90
2023-03-23T18:09:03.724Z,9.70
2023-03-23T18:11:32.328Z,9.40
2023-03-23T18:14:00.606Z,10.00
2023-03-23T18:16:34.768Z,10.60
2023-03-23T18:19:04.195Z,12.30
2023-03-23T18:21:32.680Z,13.10
2023-03-23T18:24:01.725Z,12.20
2023-03-23T18:26:29.995Z,12.40
2023-03-23T18:28:57.795Z,12.40
2023-03-23T18:31:26.014Z,11.70
2023-03-23T18:33:55.400Z,11.80
2023-03-23T18:36:25.690Z,11.30
2023-03-23T18:38:56.130Z,10.70
2023-03-23T18:41:24.161Z,11.70
2023-03-23T18:43:52.222Z,11.50
2023-03-23T18:46:20.417Z,12.00
2023-03-23T18:48:48.513Z,12.50
2023-03-23T18:51:16.448Z,12.80
2023-03-23T18:53:44.576Z,12.30
2023-03-23T18:56:14.222Z,11.80
2023-03-23T18:58:42.095Z,12.70
2023-03-23T19:01:12.693Z,12.50
2023-03-23T19:03:41.216Z,12.90
2023-03-23T19:06:21.241Z,13.00
2023-03-23T19:08:49.587Z,13.40
2023-03-23T19:11:17.557Z,13.20
2023-03-23T19:13:58.182Z,12.90
2023-03-23T19:16:35.806Z,13.70
2023-03-23T19:19:08.325Z,13.90
2023-03-23T19:24:07.111Z,13.80
2023-03-23T19:26:38.300Z,13.70
2023-03-23T19:31:38.518Z,13.80
2023-03-23T19:34:06.726Z,13.50
2023-03-23T19:36:36.892Z,13.40
2023-03-23T19:39:06.553Z,14.10
2023-03-23T19:41:36.266Z,15.70
2023-03-23T19:44:08.517Z,15.10
2023-03-23T19:46:36.484Z,17.10
2023-03-23T19:49:04.443Z,15.00
2023-03-23T19:51:32.803Z,15.90
2023-03-23T19:54:01.046Z,15.40
2023-03-23T19:56:32.594Z,15.40
2023-03-23T19:59:01.534Z,15.10
2023-03-23T20:01:29.693Z,14.60
2023-03-23T20:04:06.965Z,16.00
2023-03-23T20:06:35.546Z,15.90
2023-03-23T20:09:06.297Z,15.40
2023-03-23T20:11:34.579Z,16.10
2023-03-23T20:14:04.332Z,16.30
2023-03-23T20:16:32.856Z,15.80
2023-03-23T20:19:00.836Z,16.20
2023-03-23T20:21:28.885Z,16.00
2023-03-23T20:23:57.803Z,16.30
2023-03-23T20:26:38.654Z,17.40
2023-03-23T20:29:08.027Z,17.10
2023-03-23T20:31:38.208Z,18.30
2023-03-23T20:34:11.079Z,18.00
2023-03-23T20:36:42.297Z,17.60
2023-03-23T20:39:21.078Z,17.30
2023-03-23T20:41:50.983Z,17.00
2023-03-23T20:44:19.937Z,17.10
2023-03-23T20:46:49.951Z,18.30
2023-03-23T20:49:18.542Z,17.80
2023-03-23T20:51:47.097Z,18.40
2023-03-23T20:54:15.818Z,18.20
2023-03-23T20:56:44.469Z,18.20
2023-03-23T20:59:16.020Z,17.80
2023-03-23T21:01:44.802Z,18.30
2023-03-23T21:04:17.321Z,17.70
2023-03-23T21:06:48.897Z,17.50
2023-03-23T21:09:17.525Z,18.20
2023-03-23T21:11:46.366Z,18.00
2023-03-23T21:14:16.427Z,17.80
2023-03-23T21:16:45.146Z,18.10
2023-03-23T21:19:21.388Z,17.90
2023-03-23T21:21:56.613Z,17.80
2023-03-23T21:24:28.859Z,17.50
2023-03-23T21:26:59.932Z,18.40
2023-03-23T21:29:28.836Z,17.90
2023-03-23T21:34:30.020Z,17.70
2023-03-23T21:36:58.233Z,17.90
2023-03-23T21:39:28.275Z,18.30
2023-03-23T21:41:56.449Z,18.00
2023-03-23T21:44:24.427Z,17.30
2023-03-23T21:46:52.619Z,18.00
2023-03-23T21:49:20.645Z,16.80
2023-03-23T21:51:49.654Z,16.80
2023-03-23T21:54:17.563Z,16.50
2023-03-23T21:56:46.112Z,16.30
2023-03-23T21:59:16.932Z,16.40
2023-03-23T22:01:45.071Z,16.10
2023-03-23T22:04:13.080Z,16.10
2023-03-23T22:06:44.665Z,15.30
2023-03-23T22:09:12.657Z,14.80
2023-03-23T22:11:40.909Z,14.80
2023-03-23T22:16:46.135Z,13.40
2023-03-23T22:19:14.339Z,13.30
2023-03-23T22:21:46.607Z,12.80
2023-03-23T22:24:16.016Z,13.10
2023-03-23T22:26:45.626Z,13.10
2023-03-23T22:29:16.898Z,12.90
2023-03-23T22:31:45.571Z,12.50
2023-03-23T22:34:13.527Z,12.30
2023-03-23T22:36:41.597Z,12.10
2023-03-23T22:39:09.883Z,12.70
2023-03-23T22:41:40.613Z,12.10
2023-03-23T22:44:12.910Z,12.10
2023-03-23T22:46:40.866Z,11.60
2023-03-23T22:49:11.403Z,12.20
2023-03-23T22:51:40.235Z,11.50
2023-03-23T22:56:41.030Z,11.90
2023-03-23T22:59:09.934Z,11.70
2023-03-23T23:01:38.071Z,11.50
2023-03-23T23:04:06.634Z,11.50
2023-03-23T23:06:34.612Z,11.30
2023-03-23T23:09:02.589Z,11.40
2023-03-23T23:11:31.970Z,12.30
2023-03-23T23:14:01.341Z,11.60
2023-03-23T23:16:30.274Z,11.90
2023-03-23T23:18:58.439Z,12.00
2023-03-23T23:21:28.971Z,11.60
2023-03-23T23:23:57.189Z,11.50
2023-03-23T23:26:25.271Z,11.70
2023-03-23T23:28:54.067Z,11.80
2023-03-23T23:31:31.432Z,11.30
2023-03-23T23:34:00.857Z,11.40
2023-03-23T23:36:30.108Z,12.00
2023-03-23T23:38:59.804Z,11.80
2023-03-23T23:41:34.057Z,12.00
2023-03-23T23:44:02.498Z,11.40
2023-03-23T23:46:31.545Z,11.30
2023-03-23T23:48:59.828Z,11.10
2023-03-23T23:51:28.818Z,11.60
2023-03-23T23:53:59.127Z,11.60
2023-03-23T23:56:28.071Z,11.20
2023-03-23T23:58:56.627Z,11.30
